createdAt,value
2023-05-20T00:00:10.354Z,0.00
2023-05-20T00:01:10.369Z,0.00
2023-05-20T00:02:10.335Z,0.00
2023-05-20T00:03:10.429Z,0.00
2023-05-20T00:04:10.492Z,0.00
2023-05-20T00:05:10.341Z,0.00
2023-05-20T00:06:10.287Z,0.00
2023-05-20T00:07:10.279Z,0.00
2023-05-20T00:08:10.266Z,0.00
2023-05-20T00:09:10.268Z,0.00
2023-05-20T00:10:10.244Z,0.00
2023-05-20T00:11:10.250Z,0.00
2023-05-20T00:12:10.222Z,0.00
2023-05-20T00:13:10.213Z,0.00
2023-05-20T00:14:10.201Z,0.00
2023-05-20T00:15:10.205Z,0.00
2023-05-20T00:16:10.217Z,0.00
2023-05-20T00:17:10.200Z,0.00
2023-05-20T00:18:10.217Z,0.00
2023-05-20T00:19:10.200Z,0.00
2023-05-20T00:20:10.146Z,0.00
2023-05-20T00:21:10.131Z,0.00
2023-05-20T00:22:10.115Z,0.00
2023-05-20T00:23:10.143Z,0.00
2023-05-20T00:24:10.101Z,0.00
2023-05-20T00:25:10.097Z,0.00
2023-05-20T00:26:10.080Z,0.00
2023-05-20T00:27:10.059Z,0.00
2023-05-20T00:28:10.061Z,0.00
2023-05-20T00:29:10.062Z,0.00
2023-05-20T00:30:10.061Z,0.00
2023-05-20T00:31:10.027Z,0.00
2023-05-20T00:32:10.054Z,0.00
2023-05-20T00:33:10.107Z,0.00
2023-05-20T00:34:09.995Z,0.00
2023-05-20T00:35:10.000Z,0.00
2023-05-20T00:36:09.982Z,0.00
2023-05-20T00:37:09.950Z,0.00
2023-05-20T00:38:09.948Z,0.00
2023-05-20T00:39:09.930Z,0.00
2023-05-20T00:40:09.918Z,0.00
2023-05-20T00:41:09.941Z,0.00
2023-05-20T00:42:09.914Z,0.00
2023-05-20T00:43:09.893Z,0.00
2023-05-20T00:44:09.869Z,0.00
2023-05-20T00:45:09.865Z,0.00
2023-05-20T00:46:09.885Z,0.00
2023-05-20T00:47:09.939Z,0.00
2023-05-20T00:48:09.963Z,0.00
2023-05-20T00:49:09.845Z,0.00
2023-05-20T00:50:09.808Z,0.00
2023-05-20T00:51:09.801Z,0.00
2023-05-20T00:52:09.783Z,0.00
2023-05-20T00:53:09.805Z,0.00
2023-05-20T00:54:09.760Z,0.00
2023-05-20T00:55:09.764Z,0.00
2023-05-20T00:56:09.760Z,0.00
2023-05-20T00:57:09.753Z,0.00
2023-05-20T00:58:09.715Z,0.00
2023-05-20T00:59:09.729Z,0.00
2023-05-20T01:00:09.698Z,0.00
2023-05-20T01:01:09.736Z,0.00
2023-05-20T01:02:09.711Z,0.00
2023-05-20T01:03:09.806Z,0.00
2023-05-20T01:04:09.650Z,0.00
2023-05-20T01:05:09.666Z,0.00
2023-05-20T01:06:09.640Z,0.00
2023-05-20T01:07:09.636Z,0.00
2023-05-20T01:08:09.631Z,0.00
2023-05-20T01:09:09.608Z,0.00
2023-05-20T01:10:09.592Z,0.00
2023-05-20T01:11:09.599Z,0.00
2023-05-20T01:12:09.566Z,0.00
2023-05-20T01:13:09.553Z,0.00
2023-05-20T01:14:09.554Z,0.00
2023-05-20T01:15:09.550Z,0.00
2023-05-20T01:16:09.527Z,0.00
2023-05-20T01:17:09.539Z,0.00
2023-05-20T01:18:09.534Z,0.00
2023-05-20T01:19:09.516Z,0.00
2023-05-20T01:20:09.471Z,0.00
2023-05-20T01:21:09.489Z,0.00
2023-05-20T01:22:09.449Z,0.00
2023-05-20T01:23:09.461Z,0.00
2023-05-20T01:24:09.432Z,0.00
2023-05-20T01:25:09.441Z,0.00
2023-05-20T01:26:09.404Z,0.00
2023-05-20T01:27:09.410Z,0.00
2023-05-20T01:28:09.383Z,0.00
2023-05-20T01:29:09.408Z,0.00
2023-05-20T01:30:09.397Z,0.00
2023-05-20T01:31:09.386Z,0.00
2023-05-20T01:32:09.338Z,0.00
2023-05-20T01:33:09.387Z,0.00
2023-05-20T01:34:09.326Z,0.00
2023-05-20T01:35:09.322Z,0.00
2023-05-20T01:36:09.306Z,0.00
2023-05-20T01:37:09.329Z,0.00
2023-05-20T01:38:09.275Z,0.00
2023-05-20T01:39:09.273Z,0.00
2023-05-20T01:40:09.263Z,0.00
2023-05-20T01:41:09.254Z,0.00
2023-05-20T01:42:09.234Z,0.00
2023-05-20T01:43:09.236Z,0.00
2023-05-20T01:44:09.208Z,0.00
2023-05-20T01:45:09.212Z,0.00
2023-05-20T01:46:09.252Z,0.00
2023-05-20T01:47:09.198Z,0.00
2023-05-20T01:48:09.202Z,0.00
2023-05-20T01:49:09.159Z,0.00
2023-05-20T01:50:09.154Z,0.00
2023-05-20T01:51:09.159Z,0.00
2023-05-20T01:52:09.140Z,0.00
2023-05-20T01:53:09.144Z,0.00
2023-05-20T01:54:09.101Z,0.00
2023-05-20T01:55:09.108Z,0.00
2023-05-20T01:56:09.084Z,0.00
2023-05-20T01:57:09.089Z,0.00
2023-05-20T01:58:09.057Z,0.00
2023-05-20T01:59:09.069Z,0.00
2023-05-20T02:00:09.034Z,0.00
2023-05-20T02:01:09.073Z,0.00
2023-05-20T02:02:09.046Z,0.00
2023-05-20T02:03:09.042Z,0.00
2023-05-20T02:04:08.992Z,0.00
2023-05-20T02:05:09.005Z,0.00
2023-05-20T02:06:09.030Z,0.00
2023-05-20T02:07:08.958Z,0.00
2023-05-20T02:08:08.948Z,0.00
2023-05-20T02:09:08.979Z,0.00
2023-05-20T02:10:08.925Z,0.00
2023-05-20T02:11:08.938Z,0.00
2023-05-20T02:12:08.908Z,0.00
2023-05-20T02:13:08.908Z,0.00
2023-05-20T02:14:08.884Z,0.00
2023-05-20T02:15:08.895Z,0.00
2023-05-20T02:16:08.877Z,0.00
2023-05-20T02:17:08.873Z,0.00
2023-05-20T02:18:08.999Z,0.00
2023-05-20T02:19:08.870Z,0.00
2023-05-20T02:20:08.829Z,0.00
2023-05-20T02:21:08.821Z,0.00
2023-05-20T02:22:08.799Z,0.00
2023-05-20T02:23:08.801Z,0.00
2023-05-20T02:24:08.805Z,0.00
2023-05-20T02:25:08.816Z,0.00
2023-05-20T02:26:08.767Z,0.00
2023-05-20T02:27:08.751Z,0.00
2023-05-20T02:28:08.733Z,0.00
2023-05-20T02:29:08.736Z,0.00
2023-05-20T02:30:08.726Z,0.00
2023-05-20T02:31:08.704Z,0.00
2023-05-20T02:32:08.704Z,0.00
2023-05-20T02:33:08.699Z,0.00
2023-05-20T02:34:08.696Z,0.00
2023-05-20T02:35:08.677Z,0.00
2023-05-20T02:36:08.675Z,0.00
2023-05-20T02:37:08.645Z,0.00
2023-05-20T02:38:08.633Z,0.00
2023-05-20T02:39:08.623Z,0.00
2023-05-20T02:40:08.612Z,0.00
2023-05-20T02:41:08.627Z,0.00
2023-05-20T02:42:08.592Z,0.00
2023-05-20T02:43:08.582Z,0.00
2023-05-20T02:44:08.559Z,0.00
2023-05-20T02:45:08.564Z,0.00
2023-05-20T02:46:08.561Z,0.00
2023-05-20T02:47:08.538Z,0.00
2023-05-20T02:48:08.688Z,0.00
2023-05-20T02:49:08.510Z,0.00
2023-05-20T02:50:08.505Z,0.00
2023-05-20T02:51:08.482Z,0.00
2023-05-20T02:52:08.470Z,0.00
2023-05-20T02:53:08.493Z,0.00
2023-05-20T02:54:08.450Z,0.00
2023-05-20T02:55:08.483Z,0.00
2023-05-20T02:56:08.431Z,0.00
2023-05-20T02:57:08.438Z,0.00
2023-05-20T02:58:08.404Z,0.00
2023-05-20T02:59:08.430Z,0.00
2023-05-20T03:00:08.407Z,0.00
2023-05-20T03:01:08.453Z,0.00
2023-05-20T03:02:08.362Z,0.00
2023-05-20T03:03:08.492Z,0.00
2023-05-20T03:04:08.384Z,0.00
2023-05-20T03:05:08.341Z,0.00
2023-05-20T03:06:08.320Z,0.00
2023-05-20T03:07:08.310Z,0.00
2023-05-20T03:08:08.297Z,4.00
2023-05-20T03:09:08.289Z,4.00
2023-05-20T03:10:08.296Z,4.00
2023-05-20T03:11:08.287Z,4.00
2023-05-20T03:12:08.262Z,4.00
2023-05-20T03:13:08.264Z,4.00
2023-05-20T03:14:08.243Z,8.00
2023-05-20T03:15:08.219Z,8.00
2023-05-20T03:16:08.283Z,12.00
2023-05-20T03:17:08.234Z,12.00
2023-05-20T03:18:08.191Z,16.00
2023-05-20T03:19:08.219Z,16.00
2023-05-20T03:20:08.183Z,16.00
2023-05-20T03:21:08.157Z,24.00
2023-05-20T03:22:08.158Z,24.00
2023-05-20T03:23:08.155Z,28.00
2023-05-20T03:24:08.135Z,32.00
2023-05-20T03:25:08.126Z,40.00
2023-05-20T03:26:08.117Z,48.00
2023-05-20T03:27:08.106Z,52.00
2023-05-20T03:28:08.082Z,60.00
2023-05-20T03:29:08.097Z,68.00
2023-05-20T03:30:08.077Z,80.00
2023-05-20T03:31:08.064Z,92.00
2023-05-20T03:32:10.634Z,104.00
2023-05-20T03:33:08.035Z,116.00
2023-05-20T03:34:08.020Z,128.00
2023-05-20T03:35:08.022Z,140.00
2023-05-20T03:36:08.014Z,160.00
2023-05-20T03:37:07.978Z,176.00
2023-05-20T03:38:07.973Z,192.00
2023-05-20T03:39:07.968Z,216.00
2023-05-20T03:40:07.980Z,240.00
2023-05-20T03:41:07.955Z,260.00
2023-05-20T03:42:07.963Z,284.00
2023-05-20T03:43:07.916Z,304.00
2023-05-20T03:44:07.909Z,332.00
2023-05-20T03:45:07.908Z,360.00
2023-05-20T03:46:07.902Z,388.00
2023-05-20T03:47:07.887Z,416.00
2023-05-20T03:48:07.970Z,456.00
2023-05-20T03:49:07.853Z,496.00
2023-05-20T03:50:07.849Z,540.00
2023-05-20T03:51:07.828Z,580.00
2023-05-20T03:52:07.820Z,620.00
2023-05-20T03:53:07.847Z,664.00
2023-05-20T03:54:07.815Z,716.00
2023-05-20T03:55:07.785Z,768.00
2023-05-20T03:56:07.777Z,824.00
2023-05-20T03:57:07.766Z,876.00
2023-05-20T03:58:07.754Z,928.00
2023-05-20T03:59:07.765Z,992.00
2023-05-20T04:00:07.746Z,1060.00
2023-05-20T04:01:07.737Z,1136.00
2023-05-20T04:02:07.735Z,1224.00
2023-05-20T04:03:07.767Z,1316.00
2023-05-20T04:04:07.737Z,1424.00
2023-05-20T04:05:07.708Z,1536.00
2023-05-20T04:06:07.669Z,1624.00
2023-05-20T04:07:07.669Z,1700.00
2023-05-20T04:08:07.652Z,1772.00
2023-05-20T04:09:07.639Z,1852.00
2023-05-20T04:10:07.636Z,1928.00
2023-05-20T04:11:07.645Z,1996.00
2023-05-20T04:12:07.628Z,2064.00
2023-05-20T04:13:07.621Z,2144.00
2023-05-20T04:14:07.586Z,2216.00
2023-05-20T04:15:07.583Z,2296.00
2023-05-20T04:16:07.614Z,2372.00
2023-05-20T04:17:07.700Z,2452.00
2023-05-20T04:18:07.692Z,2524.00
2023-05-20T04:19:07.582Z,2600.00
2023-05-20T04:20:07.527Z,2696.00
2023-05-20T04:21:07.504Z,2808.00
2023-05-20T04:22:07.495Z,2920.00
2023-05-20T04:23:07.496Z,3024.00
2023-05-20T04:24:07.498Z,3112.00
2023-05-20T04:25:07.464Z,3208.00
2023-05-20T04:26:07.463Z,3336.00
2023-05-20T04:27:07.440Z,3484.00
2023-05-20T04:28:07.428Z,3660.00
2023-05-20T04:29:07.428Z,3808.00
2023-05-20T04:30:07.421Z,3948.00
2023-05-20T04:31:07.420Z,4076.00
2023-05-20T04:32:07.459Z,4176.00
2023-05-20T04:33:07.439Z,4272.00
2023-05-20T04:34:07.379Z,4380.00
2023-05-20T04:35:07.371Z,4504.00
2023-05-20T04:36:07.353Z,4644.00
2023-05-20T04:37:07.332Z,4820.00
2023-05-20T04:38:07.325Z,5016.00
2023-05-20T04:39:07.312Z,5248.00
2023-05-20T04:40:07.318Z,5548.00
2023-05-20T04:41:07.361Z,5924.00
2023-05-20T04:42:07.317Z,6376.00
2023-05-20T04:43:07.275Z,7128.00
2023-05-20T04:44:07.289Z,8072.00
2023-05-20T04:45:07.244Z,8780.00
2023-05-20T04:46:07.261Z,9340.00
2023-05-20T04:47:07.251Z,10160.00
2023-05-20T04:48:07.265Z,10840.00
2023-05-20T04:49:07.256Z,10412.00
2023-05-20T04:50:07.194Z,10716.00
2023-05-20T04:51:07.179Z,9856.00
2023-05-20T04:52:07.171Z,11256.00
2023-05-20T04:53:07.177Z,10300.00
2023-05-20T04:54:07.149Z,10168.00
2023-05-20T04:55:07.161Z,10372.00
2023-05-20T04:56:07.130Z,10624.00
2023-05-20T04:57:07.118Z,11592.00
2023-05-20T04:58:07.115Z,10776.00
2023-05-20T04:59:07.111Z,13436.00
2023-05-20T05:00:07.086Z,10676.00
2023-05-20T05:01:07.101Z,12088.00
2023-05-20T05:02:07.061Z,10600.00
2023-05-20T05:03:07.089Z,10444.00
2023-05-20T05:04:07.058Z,14480.00
2023-05-20T05:05:07.181Z,10688.00
2023-05-20T05:06:07.021Z,11452.00
2023-05-20T05:07:07.007Z,12500.00
2023-05-20T05:08:06.997Z,14132.00
2023-05-20T05:09:06.987Z,12604.00
2023-05-20T05:10:06.993Z,12464.00
2023-05-20T05:11:06.984Z,10280.00
2023-05-20T05:12:06.967Z,13852.00
2023-05-20T05:13:06.955Z,13432.00
2023-05-20T05:14:06.935Z,11804.00
2023-05-20T05:15:06.931Z,11436.00
2023-05-20T05:16:06.944Z,12676.00
2023-05-20T05:17:06.943Z,11780.00
2023-05-20T05:18:06.969Z,11840.00
2023-05-20T05:19:06.898Z,11176.00
2023-05-20T05:20:06.866Z,12348.00
2023-05-20T05:21:06.888Z,14008.00
2023-05-20T05:22:06.846Z,14612.00
2023-05-20T05:23:06.862Z,14528.00
2023-05-20T05:24:06.840Z,14520.00
2023-05-20T05:25:06.819Z,15744.00
2023-05-20T05:26:06.807Z,15348.00
2023-05-20T05:27:06.800Z,17280.00
2023-05-20T05:28:06.783Z,17472.00
2023-05-20T05:29:06.797Z,19040.00
2023-05-20T05:30:06.764Z,19456.00
2023-05-20T05:31:06.744Z,19296.00
2023-05-20T05:32:06.790Z,19424.00
2023-05-20T05:33:06.824Z,19744.00
2023-05-20T05:34:06.716Z,20032.00
2023-05-20T05:35:08.262Z,19328.00
2023-05-20T05:36:06.694Z,18464.00
2023-05-20T05:37:06.705Z,18048.00
2023-05-20T05:38:06.688Z,17824.00
2023-05-20T05:39:06.670Z,18880.00
2023-05-20T05:40:06.683Z,21664.00
2023-05-20T05:41:06.657Z,21568.00
2023-05-20T05:42:06.647Z,21248.00
2023-05-20T05:43:06.620Z,22912.00
2023-05-20T05:44:06.614Z,23648.00
2023-05-20T05:45:06.601Z,23488.00
2023-05-20T05:46:06.685Z,25024.00
2023-05-20T05:47:06.731Z,26688.00
2023-05-20T05:48:06.611Z,31840.00
2023-05-20T05:49:06.559Z,30496.00
2023-05-20T05:50:06.561Z,31936.00
2023-05-20T05:51:06.532Z,32960.00
2023-05-20T05:52:06.548Z,33888.00
2023-05-20T05:53:06.532Z,36512.00
2023-05-20T05:54:06.504Z,32160.00
2023-05-20T05:55:06.490Z,29984.00
2023-05-20T05:56:06.516Z,25184.00
2023-05-20T05:57:06.656Z,20096.00
2023-05-20T05:58:06.474Z,19744.00
2023-05-20T05:59:06.445Z,21312.00
2023-05-20T06:00:06.431Z,32608.00
2023-05-20T06:01:06.464Z,37312.00
2023-05-20T06:02:06.432Z,38016.00
2023-05-20T06:03:06.483Z,39488.00
2023-05-20T06:04:06.493Z,40416.00
2023-05-20T06:05:06.391Z,39776.00
2023-05-20T06:06:06.378Z,39136.00
2023-05-20T06:07:06.362Z,39552.00
2023-05-20T06:08:06.400Z,36288.00
2023-05-20T06:09:06.356Z,31968.00
2023-05-20T06:10:06.340Z,42528.00
2023-05-20T06:11:06.325Z,42144.00
2023-05-20T06:12:06.309Z,41728.00
2023-05-20T06:13:06.294Z,48192.00
2023-05-20T06:14:06.287Z,45184.00
2023-05-20T06:15:06.262Z,44192.00
2023-05-20T06:16:06.270Z,36736.00
2023-05-20T06:17:06.303Z,32384.00
2023-05-20T06:18:06.311Z,34304.00
2023-05-20T06:19:06.282Z,34784.00
2023-05-20T06:20:06.219Z,36896.00
2023-05-20T06:21:06.199Z,25056.00
2023-05-20T06:22:06.259Z,26976.00
2023-05-20T06:23:06.176Z,26880.00
2023-05-20T06:24:06.171Z,38752.00
2023-05-20T06:25:06.186Z,46848.00
2023-05-20T06:26:06.161Z,30688.00
2023-05-20T06:27:06.134Z,58656.00
2023-05-20T06:28:06.134Z,32128.00
2023-05-20T06:29:06.104Z,30912.00
2023-05-20T06:30:06.097Z,31744.00
2023-05-20T06:31:06.080Z,55008.00
2023-05-20T06:32:06.091Z,60384.00
2023-05-20T06:33:06.148Z,39904.00
2023-05-20T06:34:06.076Z,40416.00
2023-05-20T06:35:06.040Z,28832.00
2023-05-20T06:36:06.039Z,26208.00
2023-05-20T06:37:06.012Z,25504.00
2023-05-20T06:38:06.109Z,32512.00
2023-05-20T06:39:06.005Z,30592.00
2023-05-20T06:40:05.999Z,38112.00
2023-05-20T06:41:06.005Z,62592.00
2023-05-20T06:42:05.969Z,39872.00
2023-05-20T06:43:05.950Z,31040.00
2023-05-20T06:44:05.961Z,27232.00
2023-05-20T06:45:05.931Z,34272.00
2023-05-20T06:46:05.946Z,26144.00
2023-05-20T06:47:05.922Z,27392.00
2023-05-20T06:48:05.962Z,33792.00
2023-05-20T06:49:05.894Z,39744.00
2023-05-20T06:50:05.876Z,37216.00
2023-05-20T06:51:05.867Z,44704.00
2023-05-20T06:52:05.884Z,34688.00
2023-05-20T06:53:05.837Z,37312.00
2023-05-20T06:54:05.834Z,39808.00
2023-05-20T06:55:05.830Z,55168.00
2023-05-20T06:56:05.815Z,48128.00
2023-05-20T06:57:05.874Z,37216.00
2023-05-20T06:58:05.801Z,36480.00
2023-05-20T06:59:05.781Z,40448.00
2023-05-20T07:00:05.767Z,43392.00
2023-05-20T07:01:05.757Z,85856.00
2023-05-20T07:02:05.951Z,63072.00
2023-05-20T07:03:05.764Z,61888.00
2023-05-20T07:04:05.747Z,65824.00
2023-05-20T07:05:05.714Z,60192.00
2023-05-20T07:06:05.702Z,44160.00
2023-05-20T07:07:05.697Z,47232.00
2023-05-20T07:08:05.685Z,39008.00
2023-05-20T07:09:05.673Z,59264.00
2023-05-20T07:10:05.691Z,36992.00
2023-05-20T07:11:05.637Z,38592.00
2023-05-20T07:12:05.644Z,40928.00
2023-05-20T07:13:05.678Z,33888.00
2023-05-20T07:14:05.647Z,34080.00
2023-05-20T07:15:05.628Z,35584.00
2023-05-20T07:16:05.597Z,37280.00
2023-05-20T07:17:05.574Z,38176.00
2023-05-20T07:18:05.621Z,39136.00
2023-05-20T07:19:05.593Z,51968.00
2023-05-20T07:20:05.541Z,52288.00
2023-05-20T07:21:05.549Z,66656.00
2023-05-20T07:22:05.520Z,62912.00
2023-05-20T07:23:05.538Z,55136.00
2023-05-20T07:24:05.513Z,52960.00
2023-05-20T07:25:05.518Z,78048.00
2023-05-20T07:26:05.474Z,52640.00
2023-05-20T07:27:05.475Z,40288.00
2023-05-20T07:28:05.461Z,37760.00
2023-05-20T07:29:05.489Z,38528.00
2023-05-20T07:30:05.450Z,43520.00
2023-05-20T07:31:05.438Z,51136.00
2023-05-20T07:32:05.574Z,43488.00
2023-05-20T07:33:05.539Z,40224.00
2023-05-20T07:34:05.383Z,43520.00
2023-05-20T07:35:05.383Z,41056.00
2023-05-20T07:36:05.401Z,54240.00
2023-05-20T07:37:05.358Z,50432.00
2023-05-20T07:38:05.343Z,58752.00
2023-05-20T07:39:09.044Z,80448.00
2023-05-20T07:40:06.325Z,72576.00
2023-05-20T07:41:05.326Z,48064.00
2023-05-20T07:42:05.300Z,42752.00
2023-05-20T07:43:05.301Z,49440.00
2023-05-20T07:44:05.307Z,59328.00
2023-05-20T07:45:05.296Z,55744.00
2023-05-20T07:46:05.279Z,73216.00
2023-05-20T07:47:05.248Z,52672.00
2023-05-20T07:48:05.343Z,51232.00
2023-05-20T07:49:05.229Z,48832.00
2023-05-20T07:50:05.240Z,62400.00
2023-05-20T07:51:05.220Z,63840.00
2023-05-20T07:52:05.194Z,66368.00
2023-05-20T07:53:05.192Z,57056.00
2023-05-20T07:54:05.181Z,65600.00
2023-05-20T07:55:05.164Z,40096.00
2023-05-20T07:56:05.154Z,39008.00
2023-05-20T07:57:05.152Z,38688.00
2023-05-20T07:58:05.159Z,38816.00
2023-05-20T07:59:05.123Z,39200.00
2023-05-20T08:00:05.103Z,40608.00
2023-05-20T08:01:05.140Z,47840.00
2023-05-20T08:02:05.136Z,59584.00
2023-05-20T08:03:05.215Z,54752.00
2023-05-20T08:04:05.136Z,51968.00
2023-05-20T08:05:05.080Z,42720.00
2023-05-20T08:06:05.056Z,37504.00
2023-05-20T08:07:05.036Z,37376.00
2023-05-20T08:08:05.019Z,39456.00
2023-05-20T08:09:05.025Z,46272.00
2023-05-20T08:10:05.001Z,73952.00
2023-05-20T08:11:05.011Z,118464.00
2023-05-20T08:12:04.991Z,109664.00
2023-05-20T08:13:04.965Z,75104.00
2023-05-20T08:14:04.957Z,53536.00
2023-05-20T08:15:04.961Z,55232.00
2023-05-20T08:16:04.936Z,55424.00
2023-05-20T08:17:04.995Z,53376.00
2023-05-20T08:18:04.958Z,50112.00
2023-05-20T08:19:05.001Z,56064.00
2023-05-20T08:20:04.888Z,99872.00
2023-05-20T08:21:04.904Z,94880.00
2023-05-20T08:22:04.872Z,111872.00
2023-05-20T08:23:04.887Z,108768.00
2023-05-20T08:24:04.860Z,93728.00
2023-05-20T08:25:04.844Z,93248.00
2023-05-20T08:26:04.819Z,86560.00
2023-05-20T08:27:04.832Z,114784.00
2023-05-20T08:28:04.803Z,134432.00
2023-05-20T08:29:04.808Z,140128.00
2023-05-20T08:30:04.781Z,113312.00
2023-05-20T08:31:04.825Z,73792.00
2023-05-20T08:32:04.760Z,78336.00
2023-05-20T08:33:04.868Z,58304.00
2023-05-20T08:34:04.750Z,49152.00
2023-05-20T08:35:04.731Z,83680.00
2023-05-20T08:36:04.727Z,81664.00
2023-05-20T08:37:04.755Z,58432.00
2023-05-20T08:38:04.691Z,73216.00
2023-05-20T08:39:04.692Z,107968.00
2023-05-20T08:40:04.680Z,110816.00
2023-05-20T08:41:04.660Z,137120.00
2023-05-20T08:42:04.648Z,59328.00
2023-05-20T08:43:04.656Z,105408.00
2023-05-20T08:44:04.626Z,142656.00
2023-05-20T08:45:04.631Z,46208.00
2023-05-20T08:46:04.676Z,65696.00
2023-05-20T08:47:04.615Z,58656.00
2023-05-20T08:48:04.648Z,43776.00
2023-05-20T08:49:04.604Z,48736.00
2023-05-20T08:50:04.639Z,38016.00
2023-05-20T08:51:04.565Z,41216.00
2023-05-20T08:52:04.564Z,81376.00
2023-05-20T08:53:04.560Z,39232.00
2023-05-20T08:54:04.529Z,29568.00
2023-05-20T08:55:04.518Z,28576.00
2023-05-20T08:56:04.507Z,27808.00
2023-05-20T08:57:04.502Z,26784.00
2023-05-20T08:58:04.493Z,27200.00
2023-05-20T08:59:04.485Z,32352.00
2023-05-20T09:00:04.457Z,39360.00
2023-05-20T09:01:04.466Z,46496.00
2023-05-20T09:02:04.501Z,51808.00
2023-05-20T09:03:04.501Z,94880.00
2023-05-20T09:04:04.413Z,92192.00
2023-05-20T09:05:04.468Z,82592.00
2023-05-20T09:06:04.412Z,51776.00
2023-05-20T09:07:04.387Z,53696.00
2023-05-20T09:08:05.318Z,44928.00
2023-05-20T09:09:04.383Z,62720.00
2023-05-20T09:10:04.346Z,96608.00
2023-05-20T09:11:04.368Z,65440.00
2023-05-20T09:12:04.332Z,42784.00
2023-05-20T09:13:04.325Z,40032.00
2023-05-20T09:14:04.313Z,37888.00
2023-05-20T09:15:04.322Z,38240.00
2023-05-20T09:16:04.320Z,48384.00
2023-05-20T09:17:04.273Z,54112.00
2023-05-20T09:18:04.326Z,42720.00
2023-05-20T09:19:04.292Z,37824.00
2023-05-20T09:20:04.235Z,36224.00
2023-05-20T09:21:04.267Z,34144.00
2023-05-20T09:22:04.228Z,33344.00
2023-05-20T09:23:04.205Z,33024.00
2023-05-20T09:24:04.190Z,34432.00
2023-05-20T09:25:04.182Z,36352.00
2023-05-20T09:26:04.178Z,37152.00
2023-05-20T09:27:04.187Z,39776.00
2023-05-20T09:28:04.177Z,42624.00
2023-05-20T09:29:04.140Z,43776.00
2023-05-20T09:30:04.125Z,46144.00
2023-05-20T09:31:04.128Z,50112.00
2023-05-20T09:32:04.328Z,55488.00
2023-05-20T09:33:04.134Z,46912.00
2023-05-20T09:34:04.092Z,43968.00
2023-05-20T09:35:04.092Z,45696.00
2023-05-20T09:36:04.054Z,43328.00
2023-05-20T09:37:04.080Z,37856.00
2023-05-20T09:38:04.047Z,38720.00
2023-05-20T09:39:04.070Z,46016.00
2023-05-20T09:40:04.082Z,57216.00
2023-05-20T09:41:04.005Z,47104.00
2023-05-20T09:42:04.222Z,42208.00
2023-05-20T09:43:03.989Z,42816.00
2023-05-20T09:44:03.983Z,50272.00
2023-05-20T09:45:03.976Z,45664.00
2023-05-20T09:46:04.017Z,49056.00
2023-05-20T09:47:04.689Z,66816.00
2023-05-20T09:48:04.012Z,50272.00
2023-05-20T09:49:03.932Z,48864.00
2023-05-20T09:50:03.913Z,41280.00
2023-05-20T09:51:03.921Z,39488.00
2023-05-20T09:52:03.906Z,37664.00
2023-05-20T09:53:03.896Z,40224.00
2023-05-20T09:54:03.862Z,41120.00
2023-05-20T09:55:03.880Z,39008.00
2023-05-20T09:56:03.863Z,36416.00
2023-05-20T09:57:03.850Z,35648.00
2023-05-20T09:58:03.818Z,35744.00
2023-05-20T09:59:03.826Z,35520.00
2023-05-20T10:00:03.794Z,38080.00
2023-05-20T10:01:03.871Z,42656.00
2023-05-20T10:02:03.776Z,46784.00
2023-05-20T10:03:03.934Z,47488.00
2023-05-20T10:04:03.789Z,47200.00
2023-05-20T10:05:03.769Z,53312.00
2023-05-20T10:06:03.734Z,56672.00
2023-05-20T10:07:03.736Z,68640.00
2023-05-20T10:08:03.717Z,70304.00
2023-05-20T10:09:03.734Z,104448.00
2023-05-20T10:10:03.687Z,66304.00
2023-05-20T10:11:03.691Z,63072.00
2023-05-20T10:12:03.677Z,83456.00
2023-05-20T10:13:03.657Z,108544.00
2023-05-20T10:14:03.645Z,124192.00
2023-05-20T10:15:03.649Z,149504.00
2023-05-20T10:16:03.663Z,137728.00
2023-05-20T10:17:03.626Z,137760.00
2023-05-20T10:18:03.656Z,71840.00
2023-05-20T10:19:03.626Z,106624.00
2023-05-20T10:20:06.554Z,77600.00
2023-05-20T10:21:03.592Z,145824.00
2023-05-20T10:22:03.560Z,149152.00
2023-05-20T10:23:03.561Z,137472.00
2023-05-20T10:24:03.536Z,103488.00
2023-05-20T10:25:03.553Z,84672.00
2023-05-20T10:26:03.525Z,62976.00
2023-05-20T10:27:03.536Z,64736.00
2023-05-20T10:28:03.506Z,56160.00
2023-05-20T10:29:03.487Z,80192.00
2023-05-20T10:30:03.512Z,50944.00
2023-05-20T10:31:03.465Z,55008.00
2023-05-20T10:32:03.473Z,71904.00
2023-05-20T10:33:03.546Z,55008.00
2023-05-20T10:34:03.459Z,57120.00
2023-05-20T10:35:03.427Z,75936.00
2023-05-20T10:36:03.407Z,43072.00
2023-05-20T10:37:03.401Z,43712.00
2023-05-20T10:38:03.385Z,42176.00
2023-05-20T10:39:03.400Z,43712.00
2023-05-20T10:40:03.367Z,44096.00
2023-05-20T10:41:03.396Z,40128.00
2023-05-20T10:42:03.344Z,39712.00
2023-05-20T10:43:03.337Z,32864.00
2023-05-20T10:44:03.352Z,28224.00
2023-05-20T10:45:03.345Z,27424.00
2023-05-20T10:46:05.326Z,29984.00
2023-05-20T10:47:21.094Z,25568.00
2023-05-20T10:48:04.416Z,23040.00
2023-05-20T10:49:03.647Z,23136.00
2023-05-20T10:50:03.266Z,23328.00
2023-05-20T10:51:03.271Z,24448.00
2023-05-20T10:52:03.233Z,25856.00
2023-05-20T10:53:03.226Z,24896.00
2023-05-20T10:54:03.217Z,24544.00
2023-05-20T10:55:03.213Z,24768.00
2023-05-20T10:56:03.188Z,23744.00
2023-05-20T10:57:03.218Z,23936.00
2023-05-20T10:58:03.189Z,25280.00
2023-05-20T10:59:03.185Z,26240.00
2023-05-20T11:00:03.165Z,24096.00
2023-05-20T11:01:03.154Z,23392.00
2023-05-20T11:02:03.143Z,23072.00
2023-05-20T11:03:03.188Z,23296.00
2023-05-20T11:04:03.225Z,24288.00
2023-05-20T11:05:03.111Z,25088.00
2023-05-20T11:06:03.087Z,26848.00
2023-05-20T11:07:03.087Z,29184.00
2023-05-20T11:08:04.450Z,32032.00
2023-05-20T11:09:04.072Z,32928.00
2023-05-20T11:10:03.044Z,33248.00
2023-05-20T11:11:03.045Z,33536.00
2023-05-20T11:12:03.028Z,32192.00
2023-05-20T11:13:03.118Z,32864.00
2023-05-20T11:14:03.001Z,33472.00
2023-05-20T11:15:03.031Z,31584.00
2023-05-20T11:16:02.999Z,30208.00
2023-05-20T11:17:03.049Z,29248.00
2023-05-20T11:18:03.016Z,29984.00
2023-05-20T11:19:02.981Z,31520.00
2023-05-20T11:20:02.980Z,29440.00
2023-05-20T11:21:02.936Z,30144.00
2023-05-20T11:22:02.927Z,31584.00
2023-05-20T11:23:02.900Z,33408.00
2023-05-20T11:24:02.901Z,41824.00
2023-05-20T11:25:02.911Z,38144.00
2023-05-20T11:26:02.875Z,40288.00
2023-05-20T11:27:02.900Z,37632.00
2023-05-20T11:28:02.852Z,36576.00
2023-05-20T11:29:02.864Z,34752.00
2023-05-20T11:30:02.842Z,34720.00
2023-05-20T11:31:02.814Z,35456.00
2023-05-20T11:32:02.835Z,35424.00
2023-05-20T11:33:02.821Z,32096.00
2023-05-20T11:34:02.785Z,30240.00
2023-05-20T11:35:02.776Z,29600.00
2023-05-20T11:36:03.586Z,30080.00
2023-05-20T11:37:02.769Z,32128.00
2023-05-20T11:38:02.743Z,36320.00
2023-05-20T11:39:02.748Z,42912.00
2023-05-20T11:40:02.723Z,47904.00
2023-05-20T11:41:02.722Z,53568.00
2023-05-20T11:42:02.697Z,46944.00
2023-05-20T11:43:02.742Z,40896.00
2023-05-20T11:44:02.688Z,34752.00
2023-05-20T11:45:02.699Z,32224.00
2023-05-20T11:46:02.702Z,28480.00
2023-05-20T11:47:02.648Z,26656.00
2023-05-20T11:48:02.677Z,25408.00
2023-05-20T11:49:02.619Z,27136.00
2023-05-20T11:50:02.620Z,26208.00
2023-05-20T11:51:02.630Z,26080.00
2023-05-20T11:52:02.591Z,26976.00
2023-05-20T11:53:02.577Z,27136.00
2023-05-20T11:54:02.580Z,27808.00
2023-05-20T11:55:02.618Z,28160.00
2023-05-20T11:56:02.563Z,29600.00
2023-05-20T11:57:03.806Z,31072.00
2023-05-20T11:58:02.540Z,41376.00
2023-05-20T11:59:02.519Z,27552.00
2023-05-20T12:00:02.521Z,24864.00
2023-05-20T12:01:17.939Z,23424.00
2023-05-20T12:02:03.475Z,22592.00
2023-05-20T12:03:02.569Z,22176.00
2023-05-20T12:04:02.778Z,22080.00
2023-05-20T12:05:02.553Z,24544.00
2023-05-20T12:06:02.452Z,26688.00
2023-05-20T12:07:02.440Z,23776.00
2023-05-20T12:08:02.417Z,23136.00
2023-05-20T12:09:02.432Z,22560.00
2023-05-20T12:10:02.438Z,20960.00
2023-05-20T12:11:02.387Z,20128.00